createdAt,value
2019-03-16T00:00:37.619Z,0
2019-03-16T00:05:09.871Z,0
2019-03-16T00:08:12.504Z,0
2019-03-16T00:08:51.391Z,0
2019-03-16T00:09:33.889Z,0
2019-03-16T00:10:18.386Z,0
2019-03-16T00:11:01.351Z,0
2019-03-16T00:11:44.497Z,0
2019-03-16T00:12:35.678Z,0
2019-03-16T00:13:16.451Z,0
2019-03-16T00:13:57.478Z,0
2019-03-16T00:14:37.987Z,0
2019-03-16T00:15:18.239Z,0
2019-03-16T00:15:58.902Z,0
2019-03-16T00:16:39.330Z,0
2019-03-16T00:17:23.686Z,0
2019-03-16T00:18:02.030Z,0
2019-03-16T00:18:42.416Z,0
2019-03-16T00:19:24.956Z,0
2019-03-16T00:20:09.717Z,0
2019-03-16T00:20:50.122Z,0
2019-03-16T00:21:31.569Z,0
2019-03-16T00:22:11.971Z,0
2019-03-16T00:22:54.016Z,0
2019-03-16T00:23:38.937Z,0
2019-03-16T00:24:20.312Z,0
2019-03-16T00:25:00.621Z,0
2019-03-16T00:25:43.116Z,0
2019-03-16T00:26:23.260Z,0
2019-03-16T00:27:03.634Z,0
2019-03-16T00:27:44.014Z,0
2019-03-16T00:28:25.215Z,0
2019-03-16T00:29:05.402Z,0
2019-03-16T00:29:46.194Z,0
2019-03-16T00:30:26.518Z,0
2019-03-16T00:31:06.901Z,0
2019-03-16T00:31:47.392Z,0
2019-03-16T00:32:28.812Z,0
2019-03-16T00:33:09.198Z,0
2019-03-16T00:33:49.574Z,0
2019-03-16T00:34:31.621Z,0
2019-03-16T00:35:12.907Z,0
2019-03-16T00:35:53.643Z,0
2019-03-16T00:36:34.109Z,0
2019-03-16T00:37:14.365Z,0
2019-03-16T00:37:54.848Z,0
2019-03-16T00:38:35.260Z,0
2019-03-16T00:39:16.522Z,0
2019-03-16T00:39:56.778Z,0
2019-03-16T00:40:55.700Z,0
2019-03-16T00:41:37.330Z,0
2019-03-16T00:42:19.642Z,0
2019-03-16T00:43:01.458Z,0
2019-03-16T00:43:42.021Z,0
2019-03-16T00:44:22.369Z,0
2019-03-16T00:45:05.610Z,0
2019-03-16T00:45:49.960Z,0
2019-03-16T00:46:32.073Z,0
2019-03-16T00:47:14.937Z,0
2019-03-16T00:47:55.527Z,0
2019-03-16T00:48:45.513Z,0
2019-03-16T00:49:26.865Z,0
2019-03-16T00:52:43.126Z,0
2019-03-16T00:53:23.482Z,0
2019-03-16T00:54:03.866Z,0
2019-03-16T00:54:46.592Z,0
2019-03-16T00:55:26.929Z,0
2019-03-16T00:56:07.540Z,0
2019-03-16T00:56:48.863Z,0
2019-03-16T00:57:29.575Z,0
2019-03-16T00:58:12.951Z,0
2019-03-16T00:58:57.899Z,0
2019-03-16T00:59:38.376Z,0
2019-03-16T01:00:19.553Z,0
2019-03-16T01:00:59.967Z,0
2019-03-16T01:01:40.542Z,0
2019-03-16T01:02:26.766Z,0
2019-03-16T01:03:02.436Z,0
2019-03-16T01:03:42.885Z,0
2019-03-16T01:04:24.877Z,0
2019-03-16T01:05:05.330Z,0
2019-03-16T01:05:47.477Z,0
2019-03-16T01:06:27.849Z,0
2019-03-16T01:07:08.608Z,0
2019-03-16T01:07:50.018Z,0
2019-03-16T01:11:59.624Z,0
2019-03-16T01:12:42.395Z,0
2019-03-16T01:20:24.796Z,0
2019-03-16T01:21:12.546Z,0
2019-03-16T01:22:46.833Z,0
2019-03-16T01:23:44.911Z,0
2019-03-16T01:24:26.953Z,0
2019-03-16T01:25:07.733Z,0
2019-03-16T01:25:48.380Z,0
2019-03-16T01:26:31.141Z,0
2019-03-16T01:27:12.214Z,0
2019-03-16T01:27:53.389Z,0
2019-03-16T01:28:37.695Z,0
2019-03-16T01:29:19.823Z,0
2019-03-16T01:30:01.300Z,0
2019-03-16T01:30:44.072Z,0
2019-03-16T01:31:24.596Z,0
2019-03-16T01:32:06.001Z,0
2019-03-16T01:32:47.312Z,0
2019-03-16T01:33:30.032Z,0
2019-03-16T01:37:14.302Z,0
2019-03-16T01:37:54.607Z,0
2019-03-16T01:38:35.459Z,0
2019-03-16T01:39:17.017Z,0
2019-03-16T01:39:57.418Z,0
2019-03-16T01:40:37.849Z,0
2019-03-16T01:46:44.531Z,0
2019-03-16T01:47:23.212Z,0
2019-03-16T01:48:04.059Z,0
2019-03-16T01:48:45.330Z,0
2019-03-16T01:49:27.982Z,0
2019-03-16T01:50:08.103Z,0
2019-03-16T01:50:49.518Z,0
2019-03-16T01:51:30.097Z,0
2019-03-16T01:52:12.168Z,0
2019-03-16T01:57:46.415Z,0
2019-03-16T02:00:48.165Z,0
2019-03-16T02:03:44.271Z,0
2019-03-16T02:04:31.984Z,0
2019-03-16T02:05:14.727Z,0
2019-03-16T02:05:56.709Z,0
2019-03-16T02:06:37.866Z,0
2019-03-16T02:07:18.455Z,0
2019-03-16T02:07:59.206Z,0
2019-03-16T02:08:39.586Z,0
2019-03-16T02:09:20.165Z,0
2019-03-16T02:18:42.807Z,0
2019-03-16T02:25:00.607Z,0
2019-03-16T02:33:48.671Z,0
2019-03-16T02:36:45.648Z,0
2019-03-16T02:41:13.687Z,0
2019-03-16T02:51:37.235Z,0
2019-03-16T02:52:18.160Z,0
2019-03-16T02:53:03.887Z,0
2019-03-16T02:53:45.980Z,0
2019-03-16T02:54:27.449Z,0
2019-03-16T02:55:08.551Z,0
2019-03-16T02:55:49.556Z,0
2019-03-16T02:56:29.723Z,0
2019-03-16T02:57:10.097Z,0
2019-03-16T02:57:50.606Z,0
2019-03-16T02:58:30.990Z,0
2019-03-16T02:59:11.788Z,0
2019-03-16T02:59:52.175Z,0
2019-03-16T03:00:32.875Z,0
2019-03-16T03:01:13.354Z,0
2019-03-16T03:01:53.958Z,0
2019-03-16T03:02:34.141Z,0
2019-03-16T03:03:28.352Z,0
2019-03-16T03:03:55.139Z,0
2019-03-16T03:04:35.902Z,0
2019-03-16T03:05:15.969Z,0
2019-03-16T03:05:56.335Z,0
2019-03-16T03:06:36.853Z,0
2019-03-16T03:07:17.768Z,0
2019-03-16T03:07:58.166Z,0
2019-03-16T03:08:38.624Z,0
2019-03-16T03:09:19.025Z,0
2019-03-16T03:09:59.344Z,0
2019-03-16T03:10:39.820Z,0
2019-03-16T03:11:20.156Z,0
2019-03-16T03:12:00.584Z,0
2019-03-16T03:12:40.955Z,0
2019-03-16T03:13:21.334Z,0
2019-03-16T03:14:01.683Z,0
2019-03-16T03:14:42.161Z,0
2019-03-16T03:15:22.631Z,0
2019-03-16T03:16:03.016Z,0
2019-03-16T03:16:43.679Z,0
2019-03-16T03:17:23.977Z,0
2019-03-16T03:18:04.450Z,0
2019-03-16T03:18:49.276Z,0
2019-03-16T03:19:26.215Z,0
2019-03-16T03:20:06.769Z,0
2019-03-16T03:20:49.179Z,0
2019-03-16T03:21:30.509Z,0
2019-03-16T03:22:11.308Z,0
2019-03-16T03:22:51.630Z,0
2019-03-16T03:23:32.031Z,0
2019-03-16T03:24:12.482Z,0
2019-03-16T03:24:55.426Z,0
2019-03-16T03:25:35.776Z,0
2019-03-16T03:26:16.390Z,0
2019-03-16T03:26:56.824Z,0
2019-03-16T03:27:41.077Z,0
2019-03-16T03:28:24.115Z,0
2019-03-16T03:29:06.056Z,0
2019-03-16T03:29:47.313Z,0
2019-03-16T03:30:27.882Z,0
2019-03-16T03:31:09.194Z,0
2019-03-16T03:31:48.940Z,0
2019-03-16T03:32:29.568Z,0
2019-03-16T03:33:09.781Z,0
2019-03-16T03:33:59.573Z,0
2019-03-16T03:34:32.268Z,0
2019-03-16T03:35:12.951Z,0
2019-03-16T03:35:53.467Z,0
2019-03-16T03:36:36.030Z,0
2019-03-16T03:37:16.973Z,0
2019-03-16T03:37:57.322Z,0
2019-03-16T03:38:39.934Z,0
2019-03-16T03:39:25.581Z,0
2019-03-16T03:40:06.248Z,0
2019-03-16T03:40:46.415Z,0
2019-03-16T03:41:27.060Z,0
2019-03-16T03:42:07.473Z,0
2019-03-16T03:42:47.829Z,0
2019-03-16T03:43:28.201Z,0
2019-03-16T03:44:08.705Z,0
2019-03-16T03:44:49.169Z,0
2019-03-16T03:45:29.562Z,0
2019-03-16T03:46:10.732Z,0
2019-03-16T03:46:51.324Z,0
2019-03-16T03:47:32.553Z,0
2019-03-16T03:48:13.508Z,0
2019-03-16T03:48:53.422Z,0
2019-03-16T03:49:33.780Z,0
2019-03-16T03:50:14.208Z,0
2019-03-16T03:50:54.573Z,0
2019-03-16T03:51:35.224Z,0
2019-03-16T03:52:15.697Z,0
2019-03-16T03:52:56.267Z,0
2019-03-16T03:53:40.656Z,0
2019-03-16T03:54:17.061Z,0
2019-03-16T03:54:57.478Z,0
2019-03-16T03:55:38.630Z,0
2019-03-16T03:56:18.414Z,0
2019-03-16T03:56:58.753Z,0
2019-03-16T03:57:39.024Z,0
2019-03-16T03:58:19.431Z,0
2019-03-16T03:58:59.861Z,0
2019-03-16T03:59:40.249Z,0
2019-03-16T04:00:20.592Z,0
2019-03-16T04:01:01.335Z,0
2019-03-16T04:01:41.636Z,0
2019-03-16T04:02:22.117Z,0
2019-03-16T04:03:02.487Z,0
2019-03-16T04:03:42.877Z,0
2019-03-16T04:04:23.398Z,0
2019-03-16T04:05:03.738Z,0
2019-03-16T04:05:44.129Z,0
2019-03-16T04:06:25.791Z,0
2019-03-16T04:07:06.460Z,0
2019-03-16T04:07:46.767Z,0
2019-03-16T04:08:27.146Z,0
2019-03-16T04:09:07.676Z,0
2019-03-16T04:09:48.132Z,0
2019-03-16T04:10:28.956Z,0
2019-03-16T04:11:09.006Z,0
2019-03-16T04:11:49.481Z,0
2019-03-16T04:12:29.963Z,0
2019-03-16T04:13:10.447Z,0
2019-03-16T04:13:50.746Z,0
2019-03-16T04:14:31.988Z,0
2019-03-16T04:15:13.046Z,0
2019-03-16T04:15:53.900Z,0
2019-03-16T04:16:34.697Z,0
2019-03-16T04:17:15.754Z,0
2019-03-16T04:17:58.583Z,0
2019-03-16T04:23:38.070Z,0
2019-03-16T05:07:19.728Z,0
2019-03-16T05:07:57.088Z,0
2019-03-16T05:08:38.375Z,0
2019-03-16T05:09:20.096Z,0
2019-03-16T05:16:54.882Z,0
2019-03-16T05:17:35.397Z,0
2019-03-16T05:18:15.820Z,0
2019-03-16T05:18:56.115Z,0
2019-03-16T05:19:36.551Z,0
2019-03-16T05:20:16.894Z,0
2019-03-16T05:20:57.319Z,0
2019-03-16T05:21:37.717Z,0
2019-03-16T05:22:18.034Z,0
2019-03-16T05:22:58.455Z,0
2019-03-16T05:23:38.788Z,0
2019-03-16T05:24:19.169Z,0
2019-03-16T05:24:59.542Z,0
2019-03-16T05:25:39.969Z,0
2019-03-16T05:26:20.307Z,0
2019-03-16T05:27:00.755Z,0
2019-03-16T05:27:41.173Z,0
2019-03-16T05:28:21.505Z,0
2019-03-16T05:29:01.871Z,0
2019-03-16T05:29:42.255Z,0
2019-03-16T05:30:22.705Z,0
2019-03-16T05:31:03.068Z,0
2019-03-16T05:31:43.406Z,0
2019-03-16T05:32:23.776Z,0
2019-03-16T05:33:04.239Z,0
2019-03-16T05:33:44.632Z,0
2019-03-16T05:34:25.032Z,0
2019-03-16T05:35:05.405Z,0
2019-03-16T05:35:45.759Z,0
2019-03-16T05:36:26.194Z,0
2019-03-16T05:37:06.650Z,0
2019-03-16T05:37:47.014Z,0
2019-03-16T05:38:27.359Z,0
2019-03-16T05:39:07.783Z,0
2019-03-16T05:39:48.622Z,0
2019-03-16T05:40:29.392Z,0
2019-03-16T05:41:09.703Z,0
2019-03-16T05:41:50.118Z,0
2019-03-16T05:42:30.485Z,0
2019-03-16T05:43:10.901Z,0
2019-03-16T05:43:51.283Z,0
2019-03-16T05:44:31.675Z,0
2019-03-16T05:45:12.033Z,0
2019-03-16T05:45:52.433Z,0
2019-03-16T05:46:32.851Z,0
2019-03-16T05:47:13.194Z,0
2019-03-16T05:47:53.586Z,0
2019-03-16T05:48:33.988Z,0
2019-03-16T05:49:14.345Z,0
2019-03-16T05:49:54.711Z,0
2019-03-16T05:50:35.066Z,0
2019-03-16T05:51:15.529Z,0
2019-03-16T05:51:55.842Z,0
2019-03-16T05:52:36.217Z,0
2019-03-16T05:53:16.596Z,0
2019-03-16T05:53:56.985Z,0
2019-03-16T05:54:37.381Z,0
2019-03-16T05:55:17.757Z,0
2019-03-16T05:55:58.172Z,0
2019-03-16T05:56:38.544Z,0
2019-03-16T05:57:19.033Z,0
2019-03-16T05:57:59.467Z,0
2019-03-16T05:58:39.868Z,0
2019-03-16T05:59:20.234Z,0
2019-03-16T06:00:00.589Z,0
2019-03-16T06:00:41.544Z,0
2019-03-16T06:01:22.010Z,0
2019-03-16T06:02:02.264Z,0
2019-03-16T06:02:42.649Z,0
2019-03-16T06:03:23.080Z,0
2019-03-16T06:04:03.503Z,0
2019-03-16T06:04:43.827Z,0
2019-03-16T06:05:24.277Z,0
2019-03-16T06:06:04.684Z,0
2019-03-16T06:06:44.972Z,0
2019-03-16T06:07:25.411Z,0
2019-03-16T06:08:06.037Z,0
2019-03-16T06:08:46.421Z,0
2019-03-16T06:09:26.777Z,0
2019-03-16T06:10:07.194Z,0
2019-03-16T06:10:47.620Z,0
2019-03-16T06:11:27.988Z,0
2019-03-16T06:12:08.419Z,0
2019-03-16T06:12:48.809Z,0
2019-03-16T06:13:29.269Z,0
2019-03-16T06:14:10.279Z,0
2019-03-16T06:14:50.609Z,0
2019-03-16T06:15:35.340Z,0
2019-03-16T06:16:15.491Z,0
2019-03-16T06:16:55.942Z,0
2019-03-16T06:17:36.271Z,0
2019-03-16T06:18:16.652Z,0
2019-03-16T06:18:57.147Z,0
2019-03-16T06:19:37.487Z,0
2019-03-16T06:20:18.277Z,0
2019-03-16T06:20:58.596Z,0
2019-03-16T06:21:39.008Z,0
2019-03-16T06:22:19.436Z,0
2019-03-16T06:23:04.834Z,0
2019-03-16T06:23:45.250Z,0
2019-03-16T06:24:28.084Z,0
2019-03-16T06:25:09.375Z,0
2019-03-16T06:25:51.644Z,0
2019-03-16T06:26:34.183Z,0
2019-03-16T06:27:15.689Z,0
2019-03-16T06:27:59.287Z,0
2019-03-16T06:28:39.671Z,0
2019-03-16T06:29:20.232Z,0
2019-03-16T06:30:00.658Z,0
2019-03-16T06:30:43.827Z,0
2019-03-16T06:31:26.123Z,0
2019-03-16T06:32:06.531Z,0
2019-03-16T06:32:46.961Z,0
2019-03-16T06:33:27.361Z,0
2019-03-16T06:34:08.820Z,0
2019-03-16T06:34:49.295Z,0
2019-03-16T06:35:29.742Z,0
2019-03-16T06:36:12.807Z,0
2019-03-16T06:36:53.241Z,0
2019-03-16T06:37:34.676Z,0
2019-03-16T06:38:15.865Z,0
2019-03-16T06:38:56.170Z,0
2019-03-16T06:39:36.944Z,0
2019-03-16T06:40:17.206Z,0
2019-03-16T06:40:58.488Z,0
2019-03-16T06:41:38.798Z,0
2019-03-16T06:42:19.268Z,0
2019-03-16T06:43:10.225Z,0
2019-03-16T06:43:50.665Z,0
2019-03-16T06:44:30.994Z,0
2019-03-16T06:45:13.017Z,0
2019-03-16T06:45:53.519Z,0
2019-03-16T06:46:34.084Z,0
2019-03-16T06:47:14.532Z,5
2019-03-16T06:47:56.492Z,5
2019-03-16T06:48:36.943Z,5
2019-03-16T06:49:17.533Z,5
2019-03-16T06:49:57.821Z,5
2019-03-16T06:50:41.797Z,0
2019-03-16T06:51:22.307Z,0
2019-03-16T06:52:03.089Z,0
2019-03-16T06:52:43.307Z,0
2019-03-16T06:53:25.382Z,0
2019-03-16T06:54:05.775Z,0
2019-03-16T06:54:47.096Z,0
2019-03-16T06:55:27.463Z,0
2019-03-16T06:56:07.998Z,0
2019-03-16T06:56:48.546Z,0
2019-03-16T06:57:29.203Z,5
2019-03-16T06:58:09.607Z,5
2019-03-16T06:58:50.094Z,5
2019-03-16T06:59:30.549Z,5
2019-03-16T07:00:11.399Z,5
2019-03-16T07:00:51.904Z,5
2019-03-16T07:01:32.119Z,10
2019-03-16T07:02:12.796Z,10
2019-03-16T07:02:54.751Z,10
2019-03-16T07:03:36.826Z,10
2019-03-16T07:04:17.157Z,10
2019-03-16T07:04:57.650Z,5
2019-03-16T07:05:38.954Z,5
2019-03-16T07:06:19.070Z,5
2019-03-16T07:06:59.638Z,5
2019-03-16T07:07:40.057Z,5
2019-03-16T07:08:20.699Z,5
2019-03-16T07:09:01.263Z,5
2019-03-16T07:09:41.736Z,5
2019-03-16T07:10:24.119Z,5
2019-03-16T07:11:06.359Z,10
2019-03-16T07:11:50.435Z,10
2019-03-16T07:12:36.004Z,10
2019-03-16T07:13:16.802Z,5
2019-03-16T07:14:00.599Z,5
2019-03-16T07:14:42.275Z,5
2019-03-16T07:15:22.262Z,5
2019-03-16T07:16:06.154Z,5
2019-03-16T07:16:46.864Z,5
2019-03-16T07:17:27.280Z,5
2019-03-16T07:18:08.431Z,0
2019-03-16T07:18:58.503Z,0
2019-03-16T07:19:33.829Z,0
2019-03-16T07:20:12.649Z,0
2019-03-16T07:20:53.357Z,0
2019-03-16T07:21:33.906Z,0
2019-03-16T07:22:15.058Z,0
2019-03-16T07:22:55.861Z,0
2019-03-16T07:23:36.400Z,0
2019-03-16T07:24:18.992Z,5
2019-03-16T07:24:59.017Z,5
2019-03-16T07:25:41.296Z,5
2019-03-16T07:26:24.583Z,5
2019-03-16T07:27:07.293Z,5
2019-03-16T07:27:47.630Z,5
2019-03-16T07:28:28.061Z,5
2019-03-16T07:29:12.227Z,5
2019-03-16T07:29:53.446Z,5
2019-03-16T07:30:37.141Z,5
2019-03-16T07:31:15.886Z,5
2019-03-16T07:31:57.750Z,5
2019-03-16T07:32:42.027Z,5
2019-03-16T07:33:22.459Z,5
2019-03-16T07:34:02.913Z,5
2019-03-16T07:34:45.423Z,5
2019-03-16T07:35:25.098Z,5
2019-03-16T07:36:05.478Z,5
2019-03-16T07:36:48.833Z,5
2019-03-16T07:37:31.049Z,5
2019-03-16T07:38:11.673Z,5
2019-03-16T07:38:52.123Z,5
2019-03-16T07:39:32.586Z,5
2019-03-16T07:40:14.925Z,5
2019-03-16T07:40:55.429Z,5
2019-03-16T07:41:36.692Z,5
2019-03-16T07:42:22.431Z,5
2019-03-16T07:43:02.769Z,0
2019-03-16T07:43:45.010Z,0
2019-03-16T07:44:25.387Z,0
2019-03-16T07:45:08.843Z,0
2019-03-16T07:45:47.877Z,0
2019-03-16T07:46:28.370Z,0
2019-03-16T07:47:10.341Z,5
2019-03-16T07:47:50.792Z,0
2019-03-16T07:48:31.298Z,5
2019-03-16T07:49:12.383Z,5
2019-03-16T07:49:58.675Z,5
2019-03-16T07:50:39.004Z,5
2019-03-16T07:51:19.727Z,5
2019-03-16T07:52:00.612Z,10
2019-03-16T07:52:40.606Z,10
2019-03-16T07:53:23.173Z,10
2019-03-16T07:54:04.271Z,10
2019-03-16T07:54:44.629Z,10
2019-03-16T07:55:25.049Z,10
2019-03-16T07:56:09.338Z,10
2019-03-16T07:56:51.417Z,5
2019-03-16T07:57:39.791Z,5
2019-03-16T07:58:12.332Z,5
2019-03-16T07:58:52.712Z,5
2019-03-16T07:59:33.129Z,5
2019-03-16T08:00:13.521Z,5
2019-03-16T08:00:55.482Z,5
2019-03-16T08:01:37.011Z,5
2019-03-16T08:02:17.583Z,5
2019-03-16T08:02:57.968Z,5
2019-03-16T08:03:38.446Z,5
2019-03-16T08:04:18.772Z,5
2019-03-16T08:04:59.261Z,5
2019-03-16T08:05:39.599Z,5
2019-03-16T08:06:20.140Z,5
2019-03-16T08:07:01.206Z,10
2019-03-16T08:07:44.165Z,10
2019-03-16T08:08:24.013Z,5
2019-03-16T08:09:06.406Z,10
2019-03-16T08:09:49.049Z,5
2019-03-16T08:10:29.617Z,5
2019-03-16T08:11:12.878Z,5
2019-03-16T08:11:54.686Z,5
2019-03-16T08:12:35.646Z,5
2019-03-16T08:13:17.910Z,5
2019-03-16T08:13:59.104Z,10
2019-03-16T08:14:39.837Z,10
2019-03-16T08:15:20.484Z,10
2019-03-16T08:16:00.828Z,10
2019-03-16T08:16:43.991Z,5
2019-03-16T08:17:26.138Z,10
2019-03-16T08:18:07.914Z,5
2019-03-16T08:18:46.982Z,5
2019-03-16T08:19:27.557Z,5
2019-03-16T08:20:09.640Z,10
2019-03-16T08:20:50.115Z,5
2019-03-16T08:21:33.251Z,5
2019-03-16T08:22:14.039Z,5
2019-03-16T08:22:54.516Z,5
2019-03-16T08:23:38.332Z,10
2019-03-16T08:24:20.411Z,5
2019-03-16T08:25:00.995Z,10
2019-03-16T08:25:42.669Z,10
2019-03-16T08:26:26.838Z,10
2019-03-16T08:27:09.086Z,10
2019-03-16T08:27:54.264Z,10
2019-03-16T08:28:29.903Z,10
2019-03-16T08:29:10.307Z,10
2019-03-16T08:29:51.753Z,10
2019-03-16T08:30:33.453Z,10
2019-03-16T08:31:13.999Z,5
2019-03-16T08:31:55.160Z,5
2019-03-16T08:32:36.586Z,5
2019-03-16T08:33:17.179Z,5
2019-03-16T08:34:00.382Z,5
2019-03-16T08:34:40.812Z,0
2019-03-16T08:35:23.281Z,0
2019-03-16T08:36:04.008Z,0
2019-03-16T08:36:46.277Z,5
2019-03-16T08:37:29.447Z,0
2019-03-16T08:38:09.753Z,0
2019-03-16T08:38:52.053Z,5
2019-03-16T08:39:34.039Z,5
2019-03-16T08:40:16.159Z,5
2019-03-16T08:40:56.867Z,5
2019-03-16T08:41:41.573Z,5
2019-03-16T08:42:24.009Z,5
2019-03-16T08:43:04.543Z,5
2019-03-16T08:43:46.808Z,5
2019-03-16T08:44:27.360Z,10
2019-03-16T08:45:07.762Z,10
2019-03-16T08:45:48.128Z,15
2019-03-16T08:46:28.574Z,15
2019-03-16T08:47:09.915Z,15
2019-03-16T08:47:50.314Z,10
2019-03-16T08:48:30.706Z,10
2019-03-16T08:49:11.267Z,10
2019-03-16T08:49:51.693Z,10
2019-03-16T08:50:34.248Z,15
2019-03-16T08:51:14.688Z,15
2019-03-16T08:51:55.935Z,15
2019-03-16T08:52:36.264Z,15
2019-03-16T08:53:17.033Z,15
2019-03-16T08:53:57.488Z,15
2019-03-16T08:54:39.100Z,15
2019-03-16T08:55:22.342Z,10
2019-03-16T08:56:04.549Z,15
2019-03-16T08:56:45.191Z,15
2019-03-16T08:57:25.302Z,15
2019-03-16T08:58:06.484Z,15
2019-03-16T08:58:48.484Z,10
2019-03-16T08:59:28.916Z,10
2019-03-16T09:00:09.326Z,10
2019-03-16T09:00:51.419Z,10
2019-03-16T09:01:31.855Z,10
2019-03-16T09:02:12.317Z,10
2019-03-16T09:02:52.717Z,10
2019-03-16T09:03:42.922Z,10
2019-03-16T09:04:14.682Z,10
2019-03-16T09:04:55.450Z,10
2019-03-16T09:05:35.803Z,10
2019-03-16T09:06:18.034Z,10
2019-03-16T09:06:58.580Z,10
2019-03-16T09:07:39.239Z,10
2019-03-16T09:08:19.483Z,10
2019-03-16T09:09:01.289Z,10
2019-03-16T09:09:43.209Z,10
2019-03-16T09:10:25.007Z,10
2019-03-16T09:11:08.485Z,10
2019-03-16T09:11:50.176Z,10
2019-03-16T09:15:36.853Z,15
2019-03-16T09:16:17.409Z,10
2019-03-16T09:16:57.851Z,10
2019-03-16T09:17:39.418Z,10
2019-03-16T09:18:20.169Z,10
2019-03-16T09:19:00.800Z,10
2019-03-16T09:19:42.167Z,10
2019-03-16T09:20:22.596Z,10
2019-03-16T09:21:02.987Z,15
2019-03-16T09:21:43.494Z,20
2019-03-16T09:22:24.532Z,20
2019-03-16T09:23:04.242Z,15
2019-03-16T09:23:46.155Z,15
2019-03-16T09:24:26.584Z,15
2019-03-16T09:25:06.987Z,15
2019-03-16T09:25:49.457Z,15
2019-03-16T09:26:30.621Z,15
2019-03-16T09:27:11.110Z,15
2019-03-16T09:27:53.541Z,20
2019-03-16T09:28:34.004Z,25
2019-03-16T09:29:16.191Z,35
2019-03-16T09:29:57.634Z,45
2019-03-16T09:30:39.729Z,35
2019-03-16T09:31:20.462Z,35
2019-03-16T09:32:03.374Z,45
2019-03-16T09:32:48.650Z,50
2019-03-16T09:33:29.043Z,50
2019-03-16T09:34:10.414Z,50
2019-03-16T09:39:47.615Z,35
2019-03-16T09:40:25.804Z,25
2019-03-16T09:41:06.469Z,25
2019-03-16T09:41:46.855Z,25
2019-03-16T09:42:32.587Z,25
2019-03-16T09:43:13.119Z,30
2019-03-16T09:43:54.045Z,30
2019-03-16T09:44:35.998Z,25
2019-03-16T09:45:17.219Z,25
2019-03-16T09:45:57.511Z,25
2019-03-16T09:46:38.042Z,25
2019-03-16T09:47:18.429Z,25
2019-03-16T09:47:59.131Z,35
2019-03-16T09:48:39.371Z,35
2019-03-16T09:49:21.370Z,30
2019-03-16T09:50:02.778Z,30
2019-03-16T09:50:43.336Z,30
2019-03-16T09:51:23.697Z,35
2019-03-16T09:52:04.120Z,35
2019-03-16T09:52:51.600Z,35
2019-03-16T09:53:41.612Z,40
2019-03-16T09:54:22.871Z,35
2019-03-16T09:55:04.893Z,30
2019-03-16T09:55:45.652Z,25
2019-03-16T09:56:28.926Z,35
2019-03-16T09:57:17.817Z,35
2019-03-16T09:57:58.644Z,40
2019-03-16T09:58:39.177Z,45
2019-03-16T09:59:20.588Z,45
2019-03-16T10:00:01.810Z,50
2019-03-16T10:00:44.123Z,45
2019-03-16T10:01:26.548Z,50
2019-03-16T10:02:09.652Z,50
2019-03-16T10:02:50.021Z,50
2019-03-16T10:03:30.648Z,50
2019-03-16T10:04:14.500Z,50
2019-03-16T10:04:55.058Z,40
2019-03-16T10:05:35.451Z,35
2019-03-16T10:06:16.187Z,35
2019-03-16T10:06:56.299Z,40
2019-03-16T10:07:36.699Z,40
2019-03-16T10:08:19.121Z,40
2019-03-16T10:08:57.575Z,35
2019-03-16T10:09:38.946Z,30
2019-03-16T10:10:19.373Z,30
2019-03-16T10:10:59.863Z,35
2019-03-16T10:11:42.190Z,40
2019-03-16T10:12:23.786Z,50
2019-03-16T10:13:03.889Z,55
2019-03-16T10:13:45.240Z,50
2019-03-16T10:14:25.498Z,50
2019-03-16T10:15:06.043Z,40
2019-03-16T10:15:47.462Z,35
2019-03-16T10:16:29.330Z,35
2019-03-16T10:17:13.702Z,35
2019-03-16T10:17:54.441Z,40
2019-03-16T10:18:38.706Z,40
2019-03-16T10:19:20.992Z,35
2019-03-16T10:20:01.573Z,30
2019-03-16T10:20:43.655Z,25
2019-03-16T10:21:27.035Z,25
2019-03-16T10:22:08.460Z,25
2019-03-16T10:22:50.726Z,25
2019-03-16T10:23:31.154Z,20
2019-03-16T10:24:13.846Z,20
2019-03-16T10:24:54.927Z,15
2019-03-16T10:25:35.131Z,15
2019-03-16T10:26:18.578Z,15
2019-03-16T10:26:59.229Z,15
2019-03-16T10:27:41.404Z,15
2019-03-16T10:28:21.839Z,15
2019-03-16T10:29:03.792Z,15
2019-03-16T11:15:14.019Z,55
2019-03-16T11:15:57.748Z,50
2019-03-16T11:16:41.943Z,50
2019-03-16T11:17:25.253Z,50
2019-03-16T11:18:05.796Z,50
2019-03-16T11:18:46.135Z,50
2019-03-16T11:19:26.851Z,45
2019-03-16T11:20:07.350Z,45
2019-03-16T11:20:47.748Z,40
2019-03-16T11:21:30.057Z,35
2019-03-16T11:22:11.603Z,30
2019-03-16T11:22:51.958Z,25
2019-03-16T11:23:33.918Z,25
2019-03-16T11:24:16.237Z,25
2019-03-16T11:24:58.666Z,25
2019-03-16T11:32:38.967Z,30
2019-03-16T11:33:18.696Z,30
2019-03-16T11:34:00.513Z,30
2019-03-16T11:34:40.941Z,30
2019-03-16T11:35:22.973Z,25
2019-03-16T11:36:03.386Z,25
2019-03-16T11:36:45.500Z,25
2019-03-16T11:37:25.993Z,20
2019-03-16T11:38:07.368Z,20
2019-03-16T11:38:47.855Z,20
2019-03-16T11:39:32.131Z,25
2019-03-16T11:40:10.497Z,20
2019-03-16T11:40:52.403Z,25
2019-03-16T11:41:34.754Z,30
2019-03-16T11:42:15.864Z,35
2019-03-16T11:42:58.255Z,35
2019-03-16T11:43:38.682Z,40
2019-03-16T11:44:20.531Z,45
2019-03-16T11:45:04.815Z,45
2019-03-16T11:45:46.443Z,45
2019-03-16T11:46:26.954Z,60
2019-03-16T11:47:07.356Z,50
2019-03-16T11:47:49.593Z,50
2019-03-16T11:48:30.970Z,50
2019-03-16T11:49:11.442Z,45
2019-03-16T11:49:54.564Z,45
2019-03-16T11:50:37.619Z,45
2019-03-16T11:51:18.021Z,40
2019-03-16T11:52:08.766Z,35
2019-03-16T11:52:49.641Z,30
2019-03-16T11:53:30.211Z,30
2019-03-16T11:54:10.641Z,25
2019-03-16T11:54:51.106Z,20
2019-03-16T11:55:33.191Z,20
2019-03-16T11:56:18.121Z,20
2019-03-16T11:56:56.145Z,15
2019-03-16T11:57:36.482Z,15
2019-03-16T11:58:18.690Z,15
2019-03-16T11:59:01.862Z,15
2019-03-16T11:59:45.942Z,15
2019-03-16T12:00:28.597Z,15
2019-03-16T12:01:13.201Z,15
2019-03-16T12:02:04.794Z,15
2019-03-16T12:02:35.656Z,15
2019-03-16T12:03:16.157Z,15
2019-03-16T12:03:56.555Z,15
2019-03-16T12:04:37.985Z,15
2019-03-16T12:05:18.423Z,15
2019-03-16T12:06:00.161Z,15
2019-03-16T12:06:40.607Z,15
2019-03-16T12:07:21.064Z,20
2019-03-16T12:08:03.311Z,20
2019-03-16T12:08:43.816Z,20
2019-03-16T12:09:24.154Z,20
2019-03-16T12:10:04.872Z,25
2019-03-16T12:10:45.788Z,25
2019-03-16T12:11:31.026Z,20
2019-03-16T12:12:17.113Z,20
2019-03-16T12:12:57.549Z,15
2019-03-16T12:13:37.891Z,15
2019-03-16T12:14:19.210Z,10
2019-03-16T12:15:01.571Z,15
2019-03-16T12:17:37.980Z,35
2019-03-16T12:18:20.419Z,40
2019-03-16T12:19:01.035Z,35
2019-03-16T12:19:43.322Z,25
2019-03-16T12:20:28.549Z,25
2019-03-16T12:21:08.989Z,30
2019-03-16T12:21:52.350Z,40
2019-03-16T12:22:32.788Z,40
2019-03-16T12:23:13.195Z,40
2019-03-16T12:23:56.094Z,40
2019-03-16T12:24:36.446Z,40
2019-03-16T12:25:16.929Z,40
2019-03-16T12:25:57.530Z,40
2019-03-16T12:26:38.810Z,45
2019-03-16T12:27:19.302Z,45
2019-03-16T12:28:03.235Z,35
2019-03-16T12:28:43.855Z,35
2019-03-16T12:29:33.742Z,30
2019-03-16T12:30:10.299Z,25
2019-03-16T12:30:50.719Z,25
2019-03-16T12:31:34.142Z,30
2019-03-16T12:32:14.572Z,25
2019-03-16T12:32:57.057Z,25
2019-03-16T12:33:39.230Z,20
2019-03-16T12:34:20.572Z,20
2019-03-16T12:35:01.649Z,15
2019-03-16T12:35:42.115Z,15
2019-03-16T12:36:23.958Z,15
2019-03-16T12:37:05.378Z,15
2019-03-16T12:37:45.744Z,15
2019-03-16T12:38:28.798Z,20
2019-03-16T12:39:12.591Z,15
2019-03-16T12:39:54.034Z,15
2019-03-16T12:40:37.313Z,20
2019-03-16T12:41:20.070Z,20
2019-03-16T12:42:02.260Z,20
2019-03-16T12:42:42.712Z,20
2019-03-16T12:43:23.311Z,20
2019-03-16T12:44:08.214Z,20
2019-03-16T12:44:52.197Z,20
2019-03-16T12:45:32.662Z,15
2019-03-16T12:46:14.760Z,15
2019-03-16T12:46:57.394Z,15
2019-03-16T12:47:40.619Z,10
2019-03-16T12:48:21.996Z,10
2019-03-16T12:49:03.430Z,10
2019-03-16T12:49:45.407Z,10
2019-03-16T12:50:28.974Z,15
2019-03-16T12:51:12.045Z,15
2019-03-16T12:51:54.987Z,15
2019-03-16T12:52:36.069Z,15
2019-03-16T12:53:20.798Z,15
2019-03-16T12:54:01.378Z,15
2019-03-16T12:54:44.938Z,15
2019-03-16T12:55:31.772Z,15
2019-03-16T12:56:13.829Z,15
2019-03-16T12:56:54.280Z,15
2019-03-16T12:57:34.660Z,15
2019-03-16T12:58:18.514Z,20
2019-03-16T12:59:10.203Z,15
2019-03-16T12:59:48.787Z,20
2019-03-16T13:00:30.126Z,20
2019-03-16T13:01:12.721Z,15
2019-03-16T13:01:53.730Z,15
2019-03-16T13:02:40.532Z,15
2019-03-16T13:03:22.933Z,15
2019-03-16T13:04:06.184Z,15
2019-03-16T13:04:48.573Z,15
2019-03-16T13:05:31.099Z,15
2019-03-16T13:06:14.110Z,20
2019-03-16T13:06:54.715Z,20
2019-03-16T13:07:36.595Z,20
2019-03-16T13:08:18.275Z,20
2019-03-16T13:09:00.630Z,20
2019-03-16T13:09:43.220Z,20
2019-03-16T13:10:28.603Z,20
2019-03-16T13:11:22.819Z,15
2019-03-16T13:12:04.218Z,15
2019-03-16T13:12:46.663Z,15
2019-03-16T13:13:28.785Z,20
2019-03-16T13:14:10.863Z,20
2019-03-16T13:14:53.428Z,20
2019-03-16T13:15:39.747Z,20
2019-03-16T13:16:24.688Z,20
2019-03-16T13:17:16.579Z,25